< < Back
Terminal Aerodrome Forecast


Current Version              Previous Versions:   1  2  3  4  5  6  7  8  9  

Terminal Aerodrome Forecast

554
FTUS42 KFFC 280526
TAFPDK
TAF
KPDK 280526Z 2806/2906 34008KT P6SM SKC
     FM281500 35004KT P6SM SKC
     FM282100 26004KT P6SM SKC
     FM290000 00000KT P6SM SKC=



Latest METAR

259
SAUS70 KWBC 290200 RRF
MTRPDK
METAR KPDK 290153Z 00000KT 10SM CLR 01/M06 A3029 RMK AO2 SLP275
T00061056


USA.gov is the U.S. government's official web portal to all federal, state and local government web resources and services.